Time;durP1;ratioP1;P1;durP2;ratioP2;P2;SDS_P1;SDS_P2;PMS_P1;PMS_P2;Temp;Humidity;BMP_temperature;BMP_pressure;BME280_temperature;BME280_humidity;BME280_pressure;Samples;Min_cycle;Max_cycle;Signal;HPM_P1;HPM_P2
2022/09/13 00:02:36;;;;;;;2.10;1.90;;;;;;;28.95;36.12;98896.95;1862509;76;28622;-87
2022/09/13 00:05:25;;;;;;;1.92;1.82;;;;;;;28.93;36.12;98893.66;1877161;75;28193;-85
2022/09/13 00:08:14;;;;;;;2.20;2.10;;;;;;;28.94;36.17;98891.14;1888831;75;28246;-86
2022/09/13 00:11:02;;;;;;;2.35;2.15;;;;;;;28.92;36.18;98890.61;1887490;75;28133;-86
2022/09/13 00:13:52;;;;;;;2.20;1.98;;;;;;;28.92;36.19;98888.39;1885455;75;28144;-86
2022/09/13 00:16:41;;;;;;;2.47;1.90;;;;;;;28.94;36.12;98883.42;1884324;75;28283;-86
2022/09/13 00:19:29;;;;;;;2.00;1.90;;;;;;;28.93;36.12;98885.36;1865209;76;28290;-86
2022/09/13 00:22:17;;;;;;;2.10;2.00;;;;;;;28.91;36.15;98869.62;1865758;75;28165;-83
2022/09/13 00:25:07;;;;;;;2.00;1.90;;;;;;;28.92;36.14;98871.80;1880069;75;28269;-85
2022/09/13 00:27:55;;;;;;;1.85;1.75;;;;;;;28.93;36.13;98885.36;1864544;76;28270;-85
2022/09/13 00:30:44;;;;;;;2.10;1.90;;;;;;;28.94;36.11;98882.84;1874584;75;28243;-85
2022/09/13 00:33:32;;;;;;;1.90;1.80;;;;;;;28.93;36.10;98877.61;1888033;75;28145;-84
2022/09/13 00:36:21;;;;;;;1.95;1.85;;;;;;;28.95;36.09;98877.59;1884327;75;38523;-85
2022/09/13 00:39:12;;;;;;;1.85;1.75;;;;;;;28.94;36.10;98871.78;1865251;74;28191;-85
2022/09/13 00:42:01;;;;;;;2.00;1.90;;;;;;;28.93;36.09;98872.08;1872490;75;28125;-84
2022/09/13 00:45:09;;;;;;;1.90;1.80;;;;;;;28.95;36.08;98861.55;1876431;75;28379;-86
2022/09/13 00:48:00;;;;;;;1.77;1.67;;;;;;;28.93;36.08;98867.39;1892951;74;28201;-86
2022/09/13 00:50:52;;;;;;;1.87;1.75;;;;;;;28.89;36.15;98864.11;1865211;76;28168;-86
2022/09/13 00:53:44;;;;;;;2.22;2.00;;;;;;;28.91;36.13;98863.27;1875764;75;38485;-86
2022/09/13 00:56:36;;;;;;;1.77;1.67;;;;;;;28.89;36.15;98862.73;1872522;75;28309;-84
2022/09/13 00:59:28;;;;;;;1.93;1.73;;;;;;;28.89;36.16;98858.59;1879860;75;28265;-86
2022/09/13 01:02:16;;;;;;;2.50;1.70;;;;;;;28.89;36.15;98859.41;1865081;76;28212;-84
2022/09/13 01:05:05;;;;;;;1.90;1.70;;;;;;;28.90;36.15;98862.98;1875201;75;28116;-84
2022/09/13 01:07:55;;;;;;;1.75;1.65;;;;;;;28.88;36.17;98863.28;1876298;75;28257;-82
2022/09/13 01:10:44;;;;;;;2.25;1.80;;;;;;;28.88;36.17;98856.92;1878069;75;28304;-84
2022/09/13 01:13:35;;;;;;;1.60;1.50;;;;;;;28.88;36.20;98856.92;1864263;76;28183;-85
2022/09/13 01:16:25;;;;;;;1.80;1.70;;;;;;;28.89;36.15;98855.82;1875917;75;28225;-84
2022/09/13 01:19:13;;;;;;;1.72;1.62;;;;;;;28.86;36.22;98861.92;1876640;75;28207;-77
2022/09/13 01:22:27;;;;;;;2.00;1.90;;;;;;;28.88;36.21;98858.30;1877923;75;30200;-73
2022/09/13 01:25:52;;;;;;;1.80;1.70;;;;;;;28.82;36.31;98848.42;1898438;75;28280;-73
2022/09/13 01:28:46;;;;;;;1.65;1.55;;;;;;;28.80;36.34;98845.93;1873749;75;28109;-73
2022/09/13 01:31:54;;;;;;;1.80;1.70;;;;;;;28.73;36.45;98839.36;1882832;75;28268;-73
2022/09/13 01:34:58;;;;;;;1.80;1.70;;;;;;;28.75;36.44;98840.48;1863762;76;28110;-74
2022/09/13 01:37:49;;;;;;;2.02;1.80;;;;;;;28.77;36.45;98841.55;1864519;76;28200;-73
2022/09/13 01:41:01;;;;;;;3.07;1.73;;;;;;;28.80;36.41;98840.98;1887320;75;28347;-73
2022/09/13 01:43:59;;;;;;;1.82;1.72;;;;;;;28.80;36.40;98845.13;1886000;75;28174;-74
2022/09/13 01:46:53;;;;;;;1.70;1.60;;;;;;;28.78;36.45;98843.22;1868960;75;28311;-73
2022/09/13 01:49:45;;;;;;;1.67;1.57;;;;;;;28.78;36.45;98841.83;1897943;75;28121;-74
2022/09/13 01:52:42;;;;;;;1.70;1.60;;;;;;;28.78;36.44;98834.34;1866035;76;28279;-73
2022/09/13 01:55:46;;;;;;;1.87;1.67;;;;;;;28.80;36.39;98832.69;1843290;76;28251;-73
2022/09/13 01:58:43;;;;;;;1.67;1.57;;;;;;;28.80;36.40;98823.81;1863053;76;28177;-73
2022/09/13 02:01:34;;;;;;;1.65;1.55;;;;;;;28.78;36.42;98830.20;1861985;75;28172;-74
2022/09/13 02:04:26;;;;;;;1.70;1.60;;;;;;;28.78;36.46;98832.16;1862462;75;28329;-74
2022/09/13 02:07:23;;;;;;;1.70;1.60;;;;;;;28.78;36.48;98832.96;1871220;75;28201;-74
2022/09/13 02:10:23;;;;;;;1.60;1.50;;;;;;;28.80;36.44;98834.07;1864568;76;28155;-73
2022/09/13 02:13:15;;;;;;;1.82;1.70;;;;;;;28.79;36.50;98829.64;1897944;75;37458;-74
2022/09/13 02:16:09;;;;;;;2.10;1.50;;;;;;;28.79;36.48;98833.23;1870597;75;28280;-73
2022/09/13 02:19:00;;;;;;;1.60;1.50;;;;;;;28.80;36.46;98828.55;1882975;75;28119;-75
2022/09/13 02:21:53;;;;;;;2.08;1.70;;;;;;;28.79;36.47;98830.48;1868939;75;28240;-75
2022/09/13 02:24:44;;;;;;;1.70;1.60;;;;;;;28.79;36.48;98825.50;1873921;75;28175;-73
2022/09/13 02:27:35;;;;;;;1.90;1.60;;;;;;;28.79;36.50;98836.55;1887103;75;28314;-73
2022/09/13 02:30:23;;;;;;;1.45;1.42;;;;;;;28.81;36.49;98837.09;1882461;75;28115;-73
2022/09/13 02:33:14;;;;;;;1.60;1.55;;;;;;;28.81;36.48;98832.94;1862539;76;28129;-74
2022/09/13 02:36:08;;;;;;;1.67;1.57;;;;;;;28.79;36.44;98830.48;1876620;75;28114;-75
2022/09/13 02:39:02;;;;;;;1.70;1.60;;;;;;;28.79;36.47;98829.09;1876423;75;28102;-75
2022/09/13 02:42:05;;;;;;;1.70;1.60;;;;;;;28.81;36.44;98824.64;1870259;75;28272;-73
2022/09/13 02:44:58;;;;;;;1.70;1.60;;;;;;;28.80;36.48;98827.16;1881709;75;28223;-74
2022/09/13 02:47:58;;;;;;;1.30;1.30;;;;;;;28.80;36.49;98828.55;1857190;75;28233;-74
2022/09/13 02:51:04;;;;;;;1.55;1.50;;;;;;;28.81;36.50;98827.41;1859185;75;28263;-74
2022/09/13 02:53:58;;;;;;;1.55;1.45;;;;;;;28.79;36.51;98826.33;1877812;75;28153;-73
2022/09/13 02:56:55;;;;;;;1.50;1.40;;;;;;;28.78;36.50;98820.52;1865952;75;28254;-73
2022/09/13 02:59:45;;;;;;;1.52;1.52;;;;;;;28.80;36.50;98824.40;1882676;75;28120;-73
2022/09/13 03:02:35;;;;;;;1.65;1.55;;;;;;;28.77;36.54;98823.03;1877265;75;28626;-73
2022/09/13 03:05:24;;;;;;;1.60;1.50;;;;;;;28.80;36.49;98816.91;1860732;76;28213;-73
2022/09/13 03:08:15;;;;;;;1.50;1.40;;;;;;;28.81;36.49;98817.18;1894436;75;28182;-74
2022/09/13 03:11:27;;;;;;;1.67;1.57;;;;;;;28.83;36.48;98811.35;1867335;75;28239;-74
2022/09/13 03:14:22;;;;;;;1.50;1.40;;;;;;;28.85;36.45;98807.73;1842741;76;28298;-75
2022/09/13 03:17:14;;;;;;;1.55;1.45;;;;;;;28.80;36.50;98802.28;1857702;77;28152;-75
2022/09/13 03:20:09;;;;;;;1.50;1.40;;;;;;;28.80;36.54;98798.13;1872934;75;28191;-75
2022/09/13 03:23:00;;;;;;;1.42;1.40;;;;;;;28.82;36.49;98798.66;1857717;77;28245;-75
2022/09/13 03:26:09;;;;;;;1.42;1.37;;;;;;;28.82;36.48;98793.96;1883728;75;28142;-75
2022/09/13 03:29:00;;;;;;;1.30;1.30;;;;;;;28.83;36.45;98797.53;1863105;75;28317;-74
2022/09/13 03:32:00;;;;;;;1.47;1.37;;;;;;;28.81;36.52;98805.30;1878206;75;28228;-75
2022/09/13 03:35:22;;;;;;;1.37;1.37;;;;;;;28.80;36.52;98789.84;1871418;75;28218;-74
2022/09/13 03:38:19;;;;;;;1.30;1.30;;;;;;;28.82;36.48;98787.60;1830340;78;28341;-73
2022/09/13 03:41:13;;;;;;;1.50;1.40;;;;;;;28.78;36.55;98798.41;1872552;75;28177;-74
2022/09/13 03:44:04;;;;;;;1.80;1.33;;;;;;;28.80;36.53;98795.38;1857487;77;28149;-73
2022/09/13 03:46:56;;;;;;;1.32;1.25;;;;;;;28.80;36.53;98809.98;1879138;75;28194;-74
2022/09/13 03:49:45;;;;;;;1.40;1.30;;;;;;;28.81;36.49;98808.89;1857675;77;28325;-74
2022/09/13 03:52:35;;;;;;;1.40;1.30;;;;;;;28.81;36.51;98806.67;1857661;77;28227;-73
2022/09/13 03:55:24;;;;;;;1.40;1.30;;;;;;;28.85;36.46;98813.26;1878813;75;28210;-73
2022/09/13 03:58:18;;;;;;;1.43;1.33;;;;;;;28.85;36.46;98810.50;1879072;75;28380;-74
2022/09/13 04:01:09;;;;;;;1.30;1.30;;;;;;;28.86;36.43;98812.16;1867290;75;28220;-81
2022/09/13 04:03:57;;;;;;;1.30;1.30;;;;;;;28.85;36.47;98811.33;1884290;75;28262;-82
2022/09/13 04:06:46;;;;;;;1.40;1.30;;;;;;;28.84;36.44;98809.70;1857642;77;28131;-82
2022/09/13 04:09:34;;;;;;;1.55;1.45;;;;;;;28.89;36.37;98802.73;1879049;75;28616;-83
2022/09/13 04:12:22;;;;;;;1.10;1.10;;;;;;;28.91;36.36;98807.96;1878528;75;28212;-84
2022/09/13 04:15:11;;;;;;;1.25;1.25;;;;;;;28.89;36.40;98806.88;1873976;75;28319;-83
2022/09/13 04:18:00;;;;;;;1.45;1.30;;;;;;;28.89;36.41;98808.81;1878926;75;28249;-83
2022/09/13 04:20:57;;;;;;;2.35;1.32;;;;;;;28.88;36.38;98803.84;1882914;75;28110;-82
2022/09/13 04:23:48;;;;;;;2.70;1.40;;;;;;;28.90;36.40;98785.56;1867747;75;28237;-82
2022/09/13 04:26:36;;;;;;;1.90;1.40;;;;;;;28.86;36.43;98769.30;1874508;75;28108;-82
2022/09/13 04:29:26;;;;;;;1.50;1.40;;;;;;;28.86;36.44;98754.93;1857531;77;28186;-82
2022/09/13 04:32:15;;;;;;;1.25;1.20;;;;;;;28.87;36.42;98748.84;1878895;75;28295;-82
2022/09/13 04:35:03;;;;;;;1.45;1.37;;;;;;;28.88;36.45;98746.33;1878801;75;28618;-81
2022/09/13 04:37:53;;;;;;;1.40;1.30;;;;;;;28.88;36.43;98743.56;1873019;75;28153;-81
2022/09/13 04:40:43;;;;;;;1.00;1.00;;;;;;;28.86;36.47;98725.07;1879528;75;28330;-82
2022/09/13 04:43:31;;;;;;;1.40;1.30;;;;;;;28.87;36.45;98728.11;1878789;75;28161;-83
2022/09/13 04:46:19;;;;;;;1.05;1.05;;;;;;;28.87;36.46;98739.17;1857382;76;28305;-81
2022/09/13 04:49:09;;;;;;;1.62;1.32;;;;;;;28.87;36.43;98748.27;1870778;75;28102;-82
2022/09/13 04:51:58;;;;;;;1.22;1.17;;;;;;;28.86;36.46;98748.02;1859654;75;28223;-83
2022/09/13 04:54:46;;;;;;;1.30;1.10;;;;;;;28.85;36.46;98742.77;1878656;75;28137;-82
2022/09/13 04:57:35;;;;;;;1.30;1.20;;;;;;;28.86;36.46;98744.42;1872191;75;28252;-81
2022/09/13 05:00:25;;;;;;;1.50;1.40;;;;;;;28.87;36.42;98747.47;1848467;76;28219;-82
2022/09/13 05:03:13;;;;;;;1.15;1.07;;;;;;;28.87;36.44;98751.03;1848604;76;28219;-81
2022/09/13 05:06:07;;;;;;;1.20;1.10;;;;;;;28.88;36.44;98754.62;1798709;78;28164;-81
2022/09/13 05:08:56;;;;;;;1.30;1.20;;;;;;;28.88;36.41;98760.16;1842083;76;28255;-81
2022/09/13 05:11:44;;;;;;;1.40;1.30;;;;;;;28.86;36.44;98758.25;1825846;77;28301;-81
2022/09/13 05:14:33;;;;;;;1.30;1.20;;;;;;;28.86;36.42;98765.16;1847728;76;28244;-80
2022/09/13 05:17:22;;;;;;;1.30;1.30;;;;;;;28.87;36.42;98775.91;1789821;78;28382;-82
2022/09/13 05:20:13;;;;;;;1.17;1.17;;;;;;;28.82;36.56;98773.78;1765674;79;28322;-87
2022/09/13 05:23:01;;;;;;;1.22;1.12;;;;;;;28.82;36.65;98778.76;1843801;76;28212;-88
2022/09/13 05:26:01;;;;;;;1.20;1.20;;;;;;;28.89;37.26;98783.38;1851311;76;28525;-87
2022/09/13 05:28:50;;;;;;;1.72;1.27;;;;;;;28.89;37.26;98783.38;1836480;77;29115;-87
2022/09/13 05:31:41;;;;;;;1.98;1.17;;;;;;;28.93;37.22;98784.98;1850291;77;28126;-83
2022/09/13 05:34:29;;;;;;;1.05;1.05;;;;;;;28.93;37.31;98771.16;1847133;77;28112;-84
2022/09/13 05:37:19;;;;;;;1.02;1.02;;;;;;;28.91;37.12;98763.72;1853316;77;28159;-78
2022/09/13 05:40:09;;;;;;;1.05;1.05;;;;;;;28.81;36.64;98759.67;1836365;77;28203;-79
2022/09/13 05:42:58;;;;;;;1.27;0.90;;;;;;;28.74;36.45;98760.03;1847091;77;28304;-78
2022/09/13 05:45:46;;;;;;;1.10;1.00;;;;;;;28.66;36.41;98757.34;1837409;77;28183;-79
2022/09/13 05:48:35;;;;;;;0.90;0.90;;;;;;;28.58;36.24;98749.67;1847658;77;28207;-78
2022/09/13 05:51:24;;;;;;;1.17;0.90;;;;;;;28.52;36.23;98743.91;1847844;77;28142;-78
2022/09/13 05:54:14;;;;;;;0.80;0.80;;;;;;;28.47;36.24;98761.91;1809091;77;28214;-79
2022/09/13 05:57:02;;;;;;;1.02;0.80;;;;;;;28.42;36.34;98772.21;1852930;77;28169;-78
2022/09/13 05:59:51;;;;;;;1.07;1.07;;;;;;;28.40;36.30;98749.00;1832455;76;28146;-80
2022/09/13 06:02:40;;;;;;;2.10;1.10;;;;;;;28.37;36.33;98762.59;1849614;75;32088;-79
2022/09/13 06:05:31;;;;;;;0.90;0.90;;;;;;;28.35;36.36;98762.89;1895760;74;28272;-80
2022/09/13 06:08:19;;;;;;;0.90;0.90;;;;;;;28.33;36.45;98765.67;1866722;75;28145;-76
2022/09/13 06:11:10;;;;;;;1.00;1.00;;;;;;;28.32;36.53;98761.24;1855201;76;28245;-78
2022/09/13 06:13:58;;;;;;;1.13;1.00;;;;;;;28.26;36.66;98770.16;1867909;75;28250;-73
2022/09/13 06:16:47;;;;;;;1.45;0.98;;;;;;;28.23;36.85;98766.58;1865613;76;28079;-79
2022/09/13 06:19:35;;;;;;;1.10;1.00;;;;;;;28.33;37.51;98762.36;1876470;75;28127;-81
2022/09/13 06:22:31;;;;;;;1.32;1.10;;;;;;;28.58;38.51;98770.95;1864508;76;28206;-78
2022/09/13 06:25:15;;;;;;;1.20;1.20;;;;;;;28.73;38.72;98766.11;1885680;75;31544;-79
2022/09/13 06:28:04;;;;;;;1.87;1.17;;;;;;;28.79;38.78;98758.60;1863734;76;28178;-79
2022/09/13 06:30:52;;;;;;;2.10;0.80;;;;;;;28.83;38.47;98761.59;1874673;75;28631;-79
2022/09/13 06:33:43;;;;;;;3.67;1.40;;;;;;;28.83;38.08;98755.50;1861171;75;28246;-78
2022/09/13 06:36:31;;;;;;;2.35;1.20;;;;;;;28.86;37.90;98756.86;1898014;75;28153;-76
2022/09/13 06:39:19;;;;;;;0.98;0.98;;;;;;;28.86;37.68;98756.31;1884310;75;28166;-78
2022/09/13 06:42:08;;;;;;;1.60;1.00;;;;;;;28.85;37.54;98764.33;1889579;75;28148;-77
2022/09/13 06:44:58;;;;;;;1.32;0.90;;;;;;;28.88;37.65;98769.28;1867382;75;30096;-76
2022/09/13 06:47:46;;;;;;;1.00;1.00;;;;;;;28.91;37.54;98765.11;1898169;75;28202;-77
2022/09/13 06:50:39;;;;;;;1.97;1.10;;;;;;;28.93;37.56;98762.31;1868446;75;28200;-80
2022/09/13 06:53:29;;;;;;;0.90;0.90;;;;;;;29.04;38.05;98751.94;1859314;76;28263;-79
2022/09/13 06:56:41;;;;;;;1.22;0.78;;;;;;;29.11;38.44;98753.80;1864453;76;28122;-77
2022/09/13 06:59:21;;;;;;;2.08;0.95;;;;;;;29.09;38.71;98753.27;1849227;75;28566;-78
2022/09/13 07:02:13;;;;;;;1.00;1.00;;;;;;;29.07;38.68;98749.98;1880694;75;38447;-74
2022/09/13 07:05:01;;;;;;;1.40;1.00;;;;;;;29.05;38.61;98749.45;1884744;75;28783;-78
2022/09/13 07:07:49;;;;;;;1.32;0.98;;;;;;;29.06;38.42;98752.47;1861822;75;28126;-73
2022/09/13 07:10:37;;;;;;;1.17;0.90;;;;;;;29.12;38.19;98754.07;1876055;75;28214;-78
2022/09/13 07:13:25;;;;;;;0.70;0.70;;;;;;;29.17;38.05;98762.31;1867725;75;28116;-78
2022/09/13 07:16:14;;;;;;;1.90;0.90;;;;;;;29.16;38.05;98753.19;1874931;74;28101;-78
2022/09/13 07:19:05;;;;;;;0.80;0.80;;;;;;;29.14;38.03;98755.42;1888200;74;28070;-78
2022/09/13 07:21:55;;;;;;;1.10;1.00;;;;;;;29.18;37.95;98757.89;1872684;75;28149;-77
2022/09/13 07:24:48;;;;;;;0.93;0.93;;;;;;;29.16;37.86;98755.12;1870747;74;28132;-76
2022/09/13 07:27:36;;;;;;;2.27;1.00;;;;;;;29.18;37.73;98754.30;1863797;76;28136;-78
2022/09/13 07:30:25;;;;;;;2.25;1.20;;;;;;;29.20;37.64;98754.81;1865833;75;28020;-79
2022/09/13 07:33:15;;;;;;;1.10;1.10;;;;;;;29.18;37.46;98748.20;1865627;76;28298;-79
2022/09/13 07:36:05;;;;;;;1.30;1.20;;;;;;;29.18;37.46;98748.20;1882392;74;28086;-77
2022/09/13 07:38:54;;;;;;;2.90;1.37;;;;;;;29.20;37.40;98757.58;1894559;75;28159;-76
2022/09/13 07:41:45;;;;;;;1.25;1.15;;;;;;;29.18;37.35;98757.89;1865371;76;28123;-76
2022/09/13 07:44:34;;;;;;;1.60;1.30;;;;;;;29.19;37.32;98752.63;1891965;74;28160;-76
2022/09/13 07:47:22;;;;;;;1.50;1.40;;;;;;;29.21;37.24;98752.33;1865266;75;28307;-76
2022/09/13 07:50:10;;;;;;;1.15;1.12;;;;;;;29.18;37.22;98755.67;1880991;75;28156;-75
2022/09/13 07:52:59;;;;;;;1.67;1.57;;;;;;;29.17;37.18;98754.81;1865455;75;28225;-76
2022/09/13 07:55:48;;;;;;;1.62;1.52;;;;;;;29.18;37.21;98747.38;1878539;74;28299;-77
2022/09/13 07:58:38;;;;;;;3.00;2.17;;;;;;;29.18;37.16;98748.20;1865503;76;28252;-80
2022/09/13 08:01:28;;;;;;;3.42;2.05;;;;;;;29.17;37.15;98750.66;1866142;75;28246;-79
2022/09/13 08:04:23;;;;;;;2.75;2.20;;;;;;;29.13;37.19;98748.23;1850678;75;28242;-78
2022/09/13 08:07:11;;;;;;;3.47;3.10;;;;;;;29.18;37.07;98745.99;1849374;76;28123;-80
2022/09/13 08:09:59;;;;;;;7.25;5.58;;;;;;;29.18;37.10;98744.61;1805197;78;28210;-80
2022/09/13 08:12:50;;;;;;;4.62;4.17;;;;;;;29.15;37.10;98753.48;1853151;76;28107;-78
2022/09/13 08:15:40;;;;;;;5.75;4.53;;;;;;;29.14;37.12;98752.66;1815026;76;28247;-77
2022/09/13 08:18:31;;;;;;;7.93;5.17;;;;;;;29.15;37.09;98746.58;1858774;76;28088;-78
2022/09/13 08:21:20;;;;;;;4.80;4.22;;;;;;;29.17;37.07;98755.39;1804970;78;28303;-78
2022/09/13 08:24:10;;;;;;;5.10;4.17;;;;;;;29.18;37.05;98753.73;1858848;75;28199;-78
2022/09/13 08:27:00;;;;;;;5.23;3.73;;;;;;;29.18;37.03;98756.50;1883705;75;28083;-78
2022/09/13 08:29:50;;;;;;;6.47;3.72;;;;;;;29.19;37.03;98750.42;1841455;77;28263;-78
2022/09/13 08:32:38;;;;;;;3.60;3.30;;;;;;;29.20;36.98;98752.88;1849091;76;28231;-78
2022/09/13 08:35:26;;;;;;;3.83;3.42;;;;;;;29.19;36.99;98751.25;1863477;76;28636;-78
2022/09/13 08:38:15;;;;;;;4.03;3.70;;;;;;;29.20;36.95;98754.81;1809702;77;28316;-77
2022/09/13 08:41:14;;;;;;;3.90;3.40;;;;;;;29.21;36.93;98755.09;1787261;79;28393;-78
2022/09/13 08:44:12;;;;;;;5.87;3.90;;;;;;;29.22;36.90;98743.72;1766433;79;28341;-78
2022/09/13 08:47:28;;;;;;;6.03;3.70;;;;;;;29.19;36.92;98747.09;1871949;76;28217;-77
2022/09/13 08:50:19;;;;;;;3.87;3.58;;;;;;;29.18;36.94;98749.59;1846512;76;28063;-78
2022/09/13 08:53:19;;;;;;;4.00;3.70;;;;;;;29.13;37.03;98747.41;1844283;76;28295;-78
2022/09/13 08:56:20;;;;;;;4.30;3.90;;;;;;;29.10;37.05;98755.73;1843189;77;28208;-77
2022/09/13 08:59:25;;;;;;;4.80;4.00;;;;;;;29.09;37.08;98754.66;1851909;76;28235;-78
2022/09/13 09:02:25;;;;;;;4.23;3.70;;;;;;;29.10;37.10;98749.40;1843190;76;28211;-78
2022/09/13 09:05:26;;;;;;;3.83;3.50;;;;;;;29.07;37.11;98758.27;1865257;76;28263;-78
2022/09/13 09:08:27;;;;;;;4.97;3.87;;;;;;;29.04;37.14;98758.30;1857712;76;28211;-78
2022/09/13 09:11:21;;;;;;;4.27;3.80;;;;;;;29.02;37.17;98768.02;1884517;75;28208;-78
2022/09/13 09:14:15;;;;;;;4.20;3.57;;;;;;;29.01;37.18;98760.85;1886825;75;28191;-78
2022/09/13 09:17:09;;;;;;;4.17;3.80;;;;;;;29.01;37.17;98753.94;1849799;76;28216;-78
2022/09/13 09:20:00;;;;;;;3.95;3.55;;;;;;;29.02;37.18;98750.03;1868789;75;28140;-78
2022/09/13 09:22:51;;;;;;;4.50;3.70;;;;;;;29.03;37.16;98750.31;1866715;75;28300;-77
2022/09/13 09:25:39;;;;;;;3.90;3.50;;;;;;;29.03;37.13;98746.16;1891035;75;28121;-79
2022/09/13 09:28:34;;;;;;;4.15;3.85;;;;;;;29.03;37.12;98750.31;1867936;75;28211;-79
2022/09/13 09:32:15;;;;;;;6.92;3.80;;;;;;;29.01;37.09;98744.26;1864998;76;28264;-79
2022/09/13 09:35:22;;;;;;;3.85;3.55;;;;;;;29.05;37.04;98741.16;1886808;75;28122;-78
2022/09/13 09:38:42;;;;;;;4.20;3.77;;;;;;;29.00;37.14;98748.95;1877014;75;28118;-78
2022/09/13 09:41:37;;;;;;;3.60;3.30;;;;;;;28.99;37.16;98743.70;1863956;76;28311;-78
2022/09/13 09:44:30;;;;;;;3.55;3.30;;;;;;;28.95;37.21;98735.19;1881531;75;28120;-78
2022/09/13 09:47:24;;;;;;;4.50;3.55;;;;;;;28.96;37.20;98731.88;1865260;76;28192;-78
2022/09/13 09:50:16;;;;;;;4.05;3.67;;;;;;;29.00;37.10;98729.60;1875117;75;28138;-78
2022/09/13 09:53:08;;;;;;;4.17;3.50;;;;;;;29.02;37.08;98727.91;1869873;76;28361;-78
2022/09/13 09:56:19;;;;;;;4.08;3.67;;;;;;;29.02;37.07;98726.53;1883806;75;28511;-78
2022/09/13 09:59:10;;;;;;;4.17;3.77;;;;;;;29.02;37.09;98722.38;1882580;75;28225;-78
2022/09/13 10:02:06;;;;;;;4.37;3.42;;;;;;;29.01;37.12;98722.14;1881693;75;28261;-79
2022/09/13 10:04:57;;;;;;;4.85;3.70;;;;;;;29.01;37.06;98726.28;1872640;75;28235;-81
2022/09/13 10:07:56;;;;;;;3.75;3.27;;;;;;;29.03;37.06;98715.75;1876454;75;28151;-79
2022/09/13 10:10:48;;;;;;;3.57;3.27;;;;;;;29.04;37.10;98728.44;1874814;74;28349;-79
2022/09/13 10:13:37;;;;;;;3.67;3.37;;;;;;;29.01;37.14;98716.61;1880583;75;28206;-77
2022/09/13 10:16:31;;;;;;;5.47;3.50;;;;;;;29.07;37.08;98714.03;1866070;75;28307;-77
2022/09/13 10:19:27;;;;;;;3.83;3.50;;;;;;;29.07;37.01;98711.27;1874695;75;28153;-77
2022/09/13 10:22:15;;;;;;;3.58;3.27;;;;;;;29.07;37.02;98714.03;1865266;75;28299;-77
2022/09/13 10:25:25;;;;;;;3.72;3.42;;;;;;;29.09;36.98;98713.17;1860394;76;28305;-78
2022/09/13 10:28:17;;;;;;;3.95;3.22;;;;;;;29.07;36.98;98710.71;1869554;75;30059;-77
2022/09/13 10:31:12;;;;;;;3.60;3.30;;;;;;;29.02;37.06;98716.85;1877578;75;28672;-77
2022/09/13 10:34:04;;;;;;;3.62;3.33;;;;;;;29.04;37.03;98715.99;1893129;75;28229;-75
2022/09/13 10:40:25;;;;;;;3.45;3.15;;;;;;;29.04;37.06;98707.14;1871227;75;28233;-76
2022/09/13 10:43:22;;;;;;;3.27;2.98;;;;;;;29.02;37.11;98708.56;1894090;74;28187;-74
2022/09/13 10:46:10;;;;;;;3.58;3.27;;;;;;;29.05;37.07;98703.83;1879650;75;28256;-71
2022/09/13 10:48:59;;;;;;;4.30;3.33;;;;;;;29.07;37.07;98696.88;1871299;75;28245;-81
2022/09/13 10:51:54;;;;;;;4.20;3.20;;;;;;;29.11;36.92;98697.09;1875161;75;28158;-81
2022/09/13 10:54:43;;;;;;;4.70;3.47;;;;;;;29.10;36.95;98694.08;1885741;75;28454;-76
2022/09/13 10:57:37;;;;;;;3.40;3.10;;;;;;;29.12;37.18;98691.84;1877770;75;28198;-76
2022/09/13 11:00:50;;;;;;;4.53;3.42;;;;;;;29.15;37.25;98688.49;1879305;75;28180;-82
2022/09/13 11:03:55;;;;;;;3.98;3.60;;;;;;;29.16;37.24;98690.12;1864811;76;28310;-77
2022/09/13 11:07:05;;;;;;;4.05;3.67;;;;;;;29.22;37.71;98672.38;1863532;76;28192;-79
2022/09/13 11:10:03;;;;;;;5.45;3.70;;;;;;;29.34;38.00;98674.13;1882048;75;28113;-77
2022/09/13 11:13:16;;;;;;;5.15;4.08;;;;;;;29.36;37.77;98677.41;1847104;75;28235;-78
2022/09/13 11:16:22;;;;;;;4.47;4.07;;;;;;;29.43;37.51;98668.17;1878293;75;28163;-78
2022/09/13 11:19:31;;;;;;;4.20;3.45;;;;;;;29.41;37.46;98679.55;1887262;75;28063;-78
2022/09/13 11:22:43;;;;;;;4.92;4.15;;;;;;;29.38;37.32;98677.38;1881657;75;33043;-78
2022/09/13 11:25:58;;;;;;;4.80;3.70;;;;;;;29.38;37.30;98672.42;1873570;75;28168;-78
2022/09/13 11:29:03;;;;;;;4.17;3.77;;;;;;;29.39;37.31;98668.52;1853739;75;38873;-79
2022/09/13 11:32:20;;;;;;;4.10;3.70;;;;;;;29.41;37.18;98669.87;1887110;74;28521;-78
2022/09/13 11:35:21;;;;;;;4.17;3.60;;;;;;;29.41;37.10;98667.66;1829576;77;28292;-78
2022/09/13 11:38:21;;;;;;;4.42;4.03;;;;;;;29.43;37.06;98663.47;1895752;74;28193;-78
2022/09/13 11:41:29;;;;;;;4.37;3.97;;;;;;;29.41;37.05;98663.50;1873588;75;28180;-78
2022/09/13 11:44:37;;;;;;;4.30;3.90;;;;;;;29.40;36.99;98654.41;1894320;74;28071;-79
2022/09/13 11:47:48;;;;;;;4.60;4.15;;;;;;;29.39;37.01;98653.30;1886702;74;38551;-79
2022/09/13 11:50:54;;;;;;;5.22;3.70;;;;;;;29.39;36.99;98646.38;1871053;75;28088;-78
2022/09/13 11:54:05;;;;;;;4.22;3.92;;;;;;;29.39;37.00;98648.59;1889304;75;28245;-77
2022/09/13 11:56:59;;;;;;;4.20;3.80;;;;;;;29.41;36.96;98642.75;1886882;74;28133;-75
2022/09/13 11:59:53;;;;;;;4.40;3.80;;;;;;;29.39;36.95;98635.31;1887748;75;28228;-76
2022/09/13 12:02:48;;;;;;;3.92;3.62;;;;;;;29.44;36.96;98628.32;1879798;74;28298;-76
2022/09/13 12:05:43;;;;;;;4.33;3.70;;;;;;;29.45;37.07;98631.36;1880570;75;28129;-77
2022/09/13 12:08:44;;;;;;;3.98;3.67;;;;;;;29.48;37.11;98633.51;1876449;74;28150;-79
2022/09/13 12:11:35;;;;;;;3.90;3.58;;;;;;;29.51;37.06;98627.94;1878235;75;28118;-79
2022/09/13 12:14:26;;;;;;;4.20;3.67;;;;;;;29.54;36.96;98624.58;1881837;75;28199;-78
2022/09/13 12:17:33;;;;;;;3.80;3.50;;;;;;;29.55;36.93;98617.34;1874285;75;28395;-78
2022/09/13 12:20:40;;;;;;;4.17;3.77;;;;;;;29.54;36.89;98615.72;1871124;75;28232;-78
2022/09/13 12:23:38;;;;;;;3.83;3.50;;;;;;;29.51;36.91;98612.16;1869078;75;28181;-78
2022/09/13 12:26:33;;;;;;;4.33;3.98;;;;;;;29.50;36.89;98613.27;1872995;75;28194;-78
2022/09/13 12:29:49;;;;;;;3.50;3.22;;;;;;;29.50;36.87;98609.12;1896660;74;28086;-78
2022/09/13 12:32:39;;;;;;;3.95;3.65;;;;;;;29.54;36.78;98601.88;1866927;75;28061;-80
2022/09/13 12:35:33;;;;;;;4.12;3.77;;;;;;;29.55;36.73;98602.12;1886126;75;28336;-81
2022/09/13 12:38:30;;;;;;;4.03;3.60;;;;;;;29.55;36.75;98592.44;1865698;75;28269;-83
2022/09/13 12:41:28;;;;;;;3.83;3.62;;;;;;;29.57;36.64;98595.72;1889611;75;28168;-82
2022/09/13 12:44:25;;;;;;;3.70;3.40;;;;;;;29.54;36.68;98582.51;1858024;76;28231;-81
2022/09/13 12:47:40;;;;;;;4.15;3.75;;;;;;;29.54;36.69;98585.83;1883964;75;28577;-79
2022/09/13 12:50:38;;;;;;;4.10;3.72;;;;;;;29.52;36.69;98583.37;1868691;75;28229;-79
2022/09/13 12:53:56;;;;;;;3.90;3.60;;;;;;;29.50;36.80;98577.30;1872250;75;28188;-78
2022/09/13 12:57:12;;;;;;;4.20;3.80;;;;;;;29.52;36.76;98581.99;1867276;75;28781;-79
2022/09/13 13:00:25;;;;;;;4.10;3.80;;;;;;;29.49;36.78;98575.67;1872036;75;31158;-79
2022/09/13 13:03:16;;;;;;;4.15;3.75;;;;;;;29.51;36.78;98568.44;1863807;75;28301;-79
2022/09/13 13:06:25;;;;;;;4.10;3.70;;;;;;;29.47;36.80;98561.88;1867750;75;28129;-74
2022/09/13 13:09:29;;;;;;;4.22;3.90;;;;;;;29.50;36.78;98556.54;1870250;74;28161;-82
2022/09/13 13:12:35;;;;;;;5.10;4.60;;;;;;;29.59;37.49;98549.77;1857040;77;28152;-75
2022/09/13 13:15:36;;;;;;;4.85;4.33;;;;;;;29.63;37.57;98545.27;1889070;75;28193;-75
2022/09/13 13:18:33;;;;;;;4.58;3.77;;;;;;;29.61;37.54;98537.27;1872084;75;28116;-76
2022/09/13 13:21:40;;;;;;;4.43;3.80;;;;;;;29.64;37.42;98536.64;1855961;75;28225;-76
2022/09/13 13:24:34;;;;;;;4.10;3.58;;;;;;;29.63;37.43;98544.70;1857142;77;28212;-77
2022/09/13 13:27:38;;;;;;;4.90;3.42;;;;;;;29.63;37.37;98543.32;1882061;75;28262;-76
2022/09/13 13:30:40;;;;;;;3.90;3.45;;;;;;;29.65;37.20;98545.22;1864683;75;28173;-77
2022/09/13 13:33:30;;;;;;;3.70;3.40;;;;;;;29.66;37.22;98546.88;1837700;76;28692;-83
2022/09/13 13:36:32;;;;;;;3.87;3.58;;;;;;;29.67;37.17;98533.27;1861353;75;28263;-83
2022/09/13 13:39:29;;;;;;;4.23;3.83;;;;;;;29.67;37.08;98529.13;1860568;75;28183;-83
2022/09/13 13:42:37;;;;;;;3.90;3.50;;;;;;;29.69;37.28;98531.58;1871101;75;28150;-77
2022/09/13 13:45:26;;;;;;;3.95;3.65;;;;;;;29.69;37.53;98529.64;1862832;75;28249;-82
2022/09/13 13:48:15;;;;;;;3.70;3.40;;;;;;;29.67;37.47;98533.27;1872800;75;28333;-87